Waltham, United Kingdom
Current Conditions -  °F | °C
As of 1:50 AM on Sunday 26 Oct 2014 (Local Time) from EGXS Reporting Station
Broken Clouds Broken Clouds  
Wind Chill: 52°   Ceiling: 4400
Heat Index: 52°   Visibility: 6mi
Dew Point: 46°   Wind: 21mph
Humidity: 82%   Direction: 190°S
Pressure: 30"   Gusts: NA
Location:  53.52°N, 0.1°W
Report Text: EGXS 260050Z AUTO 19018KT 9999 // BKN044/// 11/08 Q1016
Loading
Personal Weather Stations






























Interactive Weather Map
Tropical Storm Tracking
New forecast layout! Learn more

10-Day Weather Forecast

Advertisements
Track Severe Weather on mobile